Weather at Cunningham Airport

Public forecast

Using degrees Fahrenheit for public forecast. Weather courtesy of forecast.io.

Closest aviation weather report (METAR) to Cunningham Airport

Closest report is Marshfield Municipal Airport, 11.8 nm (21.8 km) ENE. Retrieved 2021/06/13 08:54 UTC (1 hour ago):

KMFI 130854Z AUTO 33008KT 10SM CLR 15/10 A3001 RMK AO2 SLP158 T01500100 53004

Closest aviation forecast (TAF) to Cunningham Airport

Closest forecast is Central Wisconsin Airport, 35.4 nm (65.6 km) ENE. Retrieved 2021/06/13 06:22 UTC (4 hours ago):

TAF KCWA 130520Z 1306/1406 30003KT P6SM SKC FM131600 29007G15KT P6SM SCT070 FM132200 25007KT P6SM SCT090 FM140100 02008KT P6SM SCT035 BKN070 PROB30 1401/1403 3SM TSRA OVC035CB FM140300 03005KT P6SM SCT070